Time;durP1;ratioP1;P1;durP2;ratioP2;P2;SDS_P1;SDS_P2;PMS_P1;PMS_P2;Temp;Humidity;BMP_temperature;BMP_pressure;BME280_temperature;BME280_humidity;BME280_pressure;Samples;Min_cycle;Max_cycle;Signal;HPM_P1;HPM_P2
2021/04/13 00:02:15;;;;;;;8.07;5.27;;;-0.10;99.90;;;;;;5033510;28;20191;-78
2021/04/13 00:04:42;;;;;;;7.67;5.37;;;-0.20;99.90;;;;;;5028682;28;20210;-76
2021/04/13 00:07:09;;;;;;;9.77;5.93;;;-0.20;99.90;;;;;;5031226;28;20286;-79
2021/04/13 00:09:36;;;;;;;9.53;6.10;;;-0.30;99.90;;;;;;5034993;28;20204;-81
2021/04/13 00:12:05;;;;;;;9.10;5.83;;;-0.40;99.90;;;;;;5032782;28;20208;-81
2021/04/13 00:14:37;;;;;;;8.57;5.60;;;-0.40;99.90;;;;;;5032427;28;20192;-81
2021/04/13 00:17:09;;;;;;;12.43;7.20;;;-0.40;99.90;;;;;;5031613;28;20199;-82
2021/04/13 00:19:42;;;;;;;10.03;6.13;;;-0.30;99.90;;;;;;5033024;28;20200;-81
2021/04/13 00:22:09;;;;;;;11.87;6.60;;;-0.30;99.90;;;;;;5033314;28;20228;-78
2021/04/13 00:24:35;;;;;;;9.10;6.03;;;-0.30;99.90;;;;;;5035896;28;20249;-82
2021/04/13 00:27:02;;;;;;;7.77;5.67;;;-0.30;99.90;;;;;;5034589;28;20249;-81
2021/04/13 00:29:32;;;;;;;8.33;6.20;;;-0.30;99.90;;;;;;5033544;28;20313;-81
2021/04/13 00:32:02;;;;;;;12.33;6.17;;;-0.40;99.90;;;;;;5030047;28;20196;-82
2021/04/13 00:34:35;;;;;;;9.43;6.13;;;-0.30;99.90;;;;;;5039815;28;20210;-80
2021/04/13 00:37:23;;;;;;;10.20;5.67;;;-0.30;99.90;;;;;;5038907;28;20191;-78
2021/04/13 00:39:50;;;;;;;9.03;6.00;;;-0.30;99.90;;;;;;5040373;28;20246;-81
2021/04/13 00:42:25;;;;;;;10.83;6.00;;;-0.30;99.90;;;;;;5041847;28;20195;-82
2021/04/13 00:44:56;;;;;;;8.30;5.97;;;-0.30;99.90;;;;;;5039062;28;20642;-83
2021/04/13 00:47:25;;;;;;;9.83;5.93;;;-0.40;99.90;;;;;;5046902;28;20197;-81
2021/04/13 00:49:56;;;;;;;8.97;5.87;;;-0.40;99.90;;;;;;5042689;28;20196;-82
2021/04/13 00:52:31;;;;;;;10.33;5.67;;;-0.50;99.90;;;;;;5043187;28;20203;-82
2021/04/13 00:55:00;;;;;;;7.27;5.33;;;-0.50;99.90;;;;;;5039592;28;20712;-83
2021/04/13 00:57:33;;;;;;;9.20;5.37;;;-0.50;99.90;;;;;;5039949;28;20246;-83
2021/04/13 01:00:01;;;;;;;10.07;5.27;;;-0.50;99.90;;;;;;5041539;28;20277;-82
2021/04/13 01:02:31;;;;;;;9.77;5.73;;;-0.50;99.90;;;;;;5038867;28;20235;-83
2021/04/13 01:05:02;;;;;;;11.33;5.23;;;-0.60;99.90;;;;;;5038525;28;20699;-81
2021/04/13 01:07:32;;;;;;;11.00;5.40;;;-0.60;99.90;;;;;;5037507;28;20191;-73
2021/04/13 01:10:05;;;;;;;8.70;4.90;;;-0.70;99.90;;;;;;5038934;28;20196;-69
2021/04/13 01:12:34;;;;;;;6.50;5.10;;;-0.70;99.90;;;;;;5041087;28;20191;-71
2021/04/13 01:15:04;;;;;;;9.17;4.90;;;-0.80;99.90;;;;;;5039652;28;20673;-66
2021/04/13 01:17:30;;;;;;;9.97;4.00;;;-0.90;99.90;;;;;;5044460;28;20238;-66
2021/04/13 01:20:02;;;;;;;7.50;3.93;;;-0.90;99.90;;;;;;5039217;28;20701;-69
2021/04/13 01:22:37;;;;;;;7.83;4.23;;;-0.80;99.90;;;;;;5037266;28;20215;-72
2021/04/13 01:25:07;;;;;;;7.33;4.23;;;-0.60;99.90;;;;;;5034528;28;20188;-68
2021/04/13 01:27:34;;;;;;;6.97;4.50;;;-0.50;99.90;;;;;;5040692;28;20211;-69
2021/04/13 01:30:07;;;;;;;7.70;4.50;;;-0.40;99.90;;;;;;5040346;28;20606;-72
2021/04/13 01:32:34;;;;;;;6.03;4.37;;;-0.40;99.90;;;;;;5036467;28;20227;-68
2021/04/13 01:35:05;;;;;;;11.20;4.27;;;-0.30;99.90;;;;;;5035964;28;20204;-69
2021/04/13 01:37:48;;;;;;;6.57;4.23;;;-0.30;99.90;;;;;;5033458;28;20199;-75
2021/04/13 01:40:24;;;;;;;8.93;4.30;;;-0.20;99.90;;;;;;5029531;28;20195;-75
2021/04/13 01:42:53;;;;;;;4.73;3.33;;;-0.20;99.90;;;;;;5033433;28;20199;-68
2021/04/13 01:45:24;;;;;;;5.03;3.60;;;-0.10;99.90;;;;;;5031212;28;20199;-71
2021/04/13 01:47:53;;;;;;;6.20;3.57;;;-0.10;99.90;;;;;;5033851;28;20751;-70
2021/04/13 01:50:23;;;;;;;4.03;3.07;;;-0.20;99.90;;;;;;5032715;28;20274;-72
2021/04/13 01:52:51;;;;;;;5.30;3.60;;;-0.20;99.90;;;;;;5029818;28;20238;-69
2021/04/13 01:55:23;;;;;;;7.50;3.63;;;-0.30;99.90;;;;;;5027306;28;20207;-68
2021/04/13 01:57:56;;;;;;;3.90;2.93;;;-0.40;99.90;;;;;;5028529;28;20649;-67
2021/04/13 02:00:36;;;;;;;6.67;3.70;;;-0.50;99.90;;;;;;5030649;28;21056;-78
2021/04/13 02:03:12;;;;;;;6.20;3.00;;;-0.60;99.90;;;;;;5030585;28;20195;-70
2021/04/13 02:05:42;;;;;;;6.43;3.00;;;-0.70;99.90;;;;;;5033751;28;20195;-68
2021/04/13 02:08:18;;;;;;;2.87;2.23;;;-0.80;99.90;;;;;;5032290;28;20920;-76
2021/04/13 02:10:52;;;;;;;3.37;2.53;;;-0.80;99.90;;;;;;5030922;28;20335;-76
2021/04/13 02:13:24;;;;;;;3.73;2.43;;;-0.80;99.90;;;;;;5033810;28;20199;-81
2021/04/13 02:15:58;;;;;;;3.13;2.33;;;-0.70;99.90;;;;;;5034250;28;20322;-80
2021/04/13 02:18:30;;;;;;;6.70;2.97;;;-0.70;99.90;;;;;;5030448;28;20198;-82
2021/04/13 02:20:58;;;;;;;4.80;2.60;;;-0.70;99.90;;;;;;5041800;28;20199;-73
2021/04/13 02:23:28;;;;;;;5.93;2.30;;;-0.80;99.90;;;;;;5042462;28;20196;-76
2021/04/13 02:25:56;;;;;;;3.17;2.10;;;-0.80;99.90;;;;;;5041164;28;20191;-81
2021/04/13 02:28:23;;;;;;;4.77;2.47;;;-0.90;99.90;;;;;;5044048;28;20482;-79
2021/04/13 02:30:50;;;;;;;5.93;2.33;;;-1.00;99.90;;;;;;5038839;28;20286;-72
2021/04/13 02:33:31;;;;;;;3.30;2.00;;;-1.00;99.90;;;;;;5041353;28;20195;-68
2021/04/13 02:35:59;;;;;;;3.53;2.13;;;-1.10;99.90;;;;;;5044638;28;20223;-83
2021/04/13 02:38:31;;;;;;;4.87;2.67;;;-1.10;99.90;;;;;;5042071;28;20199;-78
2021/04/13 02:41:03;;;;;;;4.00;2.70;;;-1.00;99.90;;;;;;5041855;28;20202;-80
2021/04/13 02:43:32;;;;;;;9.90;3.07;;;-1.00;99.90;;;;;;5041908;28;20203;-77
2021/04/13 02:46:03;;;;;;;7.03;3.20;;;-1.00;99.90;;;;;;5039195;28;20211;-77
2021/04/13 02:48:40;;;;;;;47.30;22.53;;;-1.00;99.90;;;;;;5037305;28;20212;-84
2021/04/13 02:51:10;;;;;;;92.83;41.67;;;-1.00;99.90;;;;;;5037317;28;20203;-80
2021/04/13 02:53:42;;;;;;;67.03;33.47;;;-1.00;99.90;;;;;;5036819;28;20191;-82
2021/04/13 02:56:14;;;;;;;58.87;29.43;;;-1.00;99.90;;;;;;5042760;28;20203;-74
2021/04/13 02:58:48;;;;;;;71.63;33.77;;;-1.00;99.90;;;;;;5045345;28;20218;-82
2021/04/13 03:01:15;;;;;;;61.90;31.70;;;-1.10;99.90;;;;;;5045848;28;20231;-70
2021/04/13 03:03:45;;;;;;;69.43;35.47;;;-1.00;99.90;;;;;;5045310;28;20225;-77
2021/04/13 03:06:11;;;;;;;67.10;35.57;;;-0.90;99.90;;;;;;5047751;28;20199;-80
2021/04/13 03:08:40;;;;;;;76.53;37.67;;;-0.90;99.90;;;;;;5040525;28;20263;-83
2021/04/13 03:11:13;;;;;;;70.13;34.33;;;-0.90;99.90;;;;;;5044805;28;20215;-84
2021/04/13 03:13:42;;;;;;;55.23;29.50;;;-0.90;99.90;;;;;;5045601;28;20235;-80
2021/04/13 03:16:11;;;;;;;54.87;29.07;;;-1.00;99.90;;;;;;5040269;28;20211;-81
2021/04/13 03:18:42;;;;;;;57.77;30.43;;;-1.00;99.90;;;;;;5040965;28;20211;-81
2021/04/13 03:21:13;;;;;;;53.57;27.87;;;-1.10;99.90;;;;;;5042883;28;20204;-79
2021/04/13 03:23:42;;;;;;;51.70;26.77;;;-1.20;99.90;;;;;;5047702;28;20931;-76
2021/04/13 03:26:16;;;;;;;56.07;27.20;;;-1.20;99.90;;;;;;5041059;28;20234;-70
2021/04/13 03:28:46;;;;;;;64.43;32.67;;;-1.20;99.90;;;;;;5041299;28;20346;-70
2021/04/13 03:31:15;;;;;;;49.90;26.80;;;-1.10;99.90;;;;;;5040629;28;20278;-71
2021/04/13 03:33:42;;;;;;;45.93;24.67;;;-1.10;99.90;;;;;;5043773;28;20200;-75
2021/04/13 03:36:15;;;;;;;40.93;21.73;;;-1.10;99.90;;;;;;5038375;28;20206;-81
2021/04/13 03:38:45;;;;;;;46.97;24.63;;;-1.20;99.90;;;;;;5035695;28;20646;-79
2021/04/13 03:41:15;;;;;;;53.53;28.40;;;-1.20;99.90;;;;;;5035867;28;20196;-77
2021/04/13 03:43:42;;;;;;;50.70;26.03;;;-1.20;99.90;;;;;;5041556;28;20277;-79
2021/04/13 03:46:11;;;;;;;46.57;23.30;;;-1.30;99.90;;;;;;5036064;28;20609;-81
2021/04/13 03:48:39;;;;;;;44.40;21.63;;;-1.30;99.90;;;;;;5038345;28;20894;-77
2021/04/13 03:51:10;;;;;;;33.73;17.93;;;-1.30;99.90;;;;;;5037651;28;20275;-72
2021/04/13 03:53:40;;;;;;;39.83;20.03;;;-1.20;99.90;;;;;;5037603;28;20234;-82
2021/04/13 03:56:09;;;;;;;42.03;22.20;;;-1.20;99.90;;;;;;5039767;28;20196;-77
2021/04/13 03:58:39;;;;;;;34.47;15.50;;;-1.10;99.90;;;;;;5037618;28;20226;-79
2021/04/13 04:01:08;;;;;;;42.47;20.23;;;-1.10;99.90;;;;;;5041401;28;20228;-73
2021/04/13 04:03:38;;;;;;;36.43;18.20;;;-0.90;99.90;;;;;;5040214;28;20241;-75
2021/04/13 04:06:05;;;;;;;36.83;17.10;;;-0.80;99.90;;;;;;5040077;28;20275;-77
2021/04/13 04:08:38;;;;;;;22.90;13.07;;;-0.80;99.90;;;;;;5045122;28;20220;-79
2021/04/13 04:11:05;;;;;;;17.80;9.70;;;-0.80;99.90;;;;;;5038839;28;20188;-77
2021/04/13 04:13:35;;;;;;;29.87;16.20;;;-0.80;99.90;;;;;;5038573;28;20191;-75
2021/04/13 04:16:08;;;;;;;33.17;17.50;;;-0.80;99.90;;;;;;5035307;28;20231;-76
2021/04/13 04:18:40;;;;;;;21.10;12.93;;;-0.60;99.90;;;;;;5036437;28;20223;-76
2021/04/13 04:21:37;;;;;;;23.93;10.63;;;-0.60;99.90;;;;;;5034923;28;20195;-74
2021/04/13 04:24:07;;;;;;;21.10;10.73;;;-0.50;99.90;;;;;;4957410;28;20268;-79
2021/04/13 04:26:44;;;;;;;20.47;12.70;;;-0.50;99.90;;;;;;5020622;28;20199;-75
2021/04/13 04:29:14;;;;;;;21.53;11.97;;;-0.60;99.90;;;;;;5039798;28;20654;-70
2021/04/13 04:31:43;;;;;;;16.13;9.23;;;-0.60;99.90;;;;;;5039027;28;20196;-78
2021/04/13 04:34:52;;;;;;;15.00;8.93;;;-0.60;99.90;;;;;;5036191;28;20195;-78
2021/04/13 04:37:26;;;;;;;16.40;8.50;;;-0.60;99.90;;;;;;5036031;28;20205;-78
2021/04/13 04:40:15;;;;;;;14.60;7.97;;;-0.60;99.90;;;;;;5034384;28;20864;-77
2021/04/13 04:42:54;;;;;;;10.60;6.27;;;-0.60;99.90;;;;;;5034876;28;20658;-80
2021/04/13 04:45:34;;;;;;;12.67;7.00;;;-0.60;99.90;;;;;;5041253;28;20751;-81
2021/04/13 04:48:17;;;;;;;11.57;5.93;;;-0.70;99.90;;;;;;5040731;28;20567;-78
2021/04/13 04:50:45;;;;;;;8.37;5.50;;;-0.80;99.90;;;;;;5040821;28;20196;-78
2021/04/13 04:53:12;;;;;;;12.83;5.80;;;-0.80;99.90;;;;;;5040346;28;20192;-76
2021/04/13 04:55:39;;;;;;;10.93;5.70;;;-0.80;99.90;;;;;;5038367;28;20235;-79
2021/04/13 04:58:06;;;;;;;13.33;6.80;;;-0.80;99.90;;;;;;5033592;28;22734;-79
2021/04/13 05:00:32;;;;;;;12.37;5.90;;;-0.80;99.90;;;;;;5038507;28;20259;-75
2021/04/13 05:02:59;;;;;;;8.37;4.93;;;-0.80;99.90;;;;;;5034367;28;20684;-78
2021/04/13 05:05:25;;;;;;;13.07;4.50;;;-0.80;99.90;;;;;;5036113;28;20215;-79
2021/04/13 05:07:52;;;;;;;14.63;4.90;;;-0.80;99.90;;;;;;5035667;28;20212;-77
2021/04/13 05:10:19;;;;;;;6.13;4.20;;;-0.70;99.90;;;;;;5033568;28;20199;-74
2021/04/13 05:12:46;;;;;;;9.87;5.17;;;-0.70;99.90;;;;;;5034001;28;20200;-81
2021/04/13 05:15:13;;;;;;;9.03;4.80;;;-0.70;99.90;;;;;;5032228;28;20208;-72
2021/04/13 05:17:39;;;;;;;9.20;4.60;;;-0.70;99.90;;;;;;5035102;28;20245;-80
2021/04/13 05:20:07;;;;;;;10.57;4.93;;;-0.70;99.90;;;;;;5032556;28;21122;-75
2021/04/13 05:22:34;;;;;;;7.03;4.50;;;-0.50;99.90;;;;;;5035154;28;20196;-75
2021/04/13 05:25:00;;;;;;;11.00;4.63;;;-0.50;99.90;;;;;;5035079;28;20211;-70
2021/04/13 05:27:27;;;;;;;9.97;4.67;;;-0.40;99.90;;;;;;5032303;28;20192;-79
2021/04/13 05:29:54;;;;;;;10.13;4.63;;;-0.20;99.90;;;;;;5034548;28;20227;-79
2021/04/13 05:32:21;;;;;;;11.90;5.00;;;-0.10;99.90;;;;;;5033237;28;20221;-74
2021/04/13 05:34:47;;;;;;;7.60;4.87;;;0.10;99.90;;;;;;5036425;28;20211;-80
2021/04/13 05:37:14;;;;;;;8.67;4.73;;;0.20;99.90;;;;;;5035139;28;20195;-77
2021/04/13 05:39:40;;;;;;;14.23;5.37;;;0.30;99.90;;;;;;5039039;28;20207;-79
2021/04/13 05:42:07;;;;;;;11.80;4.47;;;0.50;99.90;;;;;;5031884;28;20226;-77
2021/04/13 05:44:34;;;;;;;9.57;5.00;;;0.90;99.90;;;;;;5034220;28;20204;-75
2021/04/13 05:47:02;;;;;;;11.27;5.37;;;2.00;99.90;;;;;;5031377;28;20204;-75
2021/04/13 05:49:28;;;;;;;7.17;4.20;;;3.10;99.90;;;;;;5030632;28;20311;-78
2021/04/13 05:51:54;;;;;;;5.23;3.60;;;4.00;99.90;;;;;;5031304;28;20195;-79
2021/04/13 05:54:21;;;;;;;6.23;3.70;;;4.80;99.90;;;;;;5032491;28;20607;-77
2021/04/13 05:56:48;;;;;;;5.00;2.60;;;5.60;99.90;;;;;;5035785;28;21134;-77
2021/04/13 05:59:16;;;;;;;3.73;2.57;;;6.20;99.90;;;;;;5030382;28;20243;-74
2021/04/13 06:01:48;;;;;;;4.57;2.33;;;6.80;99.90;;;;;;5037623;28;20246;-78
2021/04/13 06:04:16;;;;;;;4.13;1.90;;;7.30;99.90;;;;;;5035010;28;20275;-78
2021/04/13 06:06:42;;;;;;;5.40;2.30;;;7.60;99.90;;;;;;5031373;28;20268;-79
2021/04/13 06:09:08;;;;;;;2.97;2.10;;;8.10;99.90;;;;;;5030000;28;20798;-77
2021/04/13 06:11:35;;;;;;;3.77;2.07;;;8.50;99.90;;;;;;5031394;28;20724;-79
2021/04/13 06:14:02;;;;;;;3.93;2.10;;;8.80;99.90;;;;;;5032267;28;20696;-74
2021/04/13 06:16:34;;;;;;;4.73;1.83;;;9.30;99.90;;;;;;5032167;28;20721;-79
2021/04/13 06:19:01;;;;;;;5.70;1.93;;;9.80;99.90;;;;;;5039846;28;20210;-79
2021/04/13 06:21:28;;;;;;;5.20;2.17;;;10.10;99.90;;;;;;5040120;28;20287;-80
2021/04/13 06:23:55;;;;;;;5.37;2.27;;;10.30;99.90;;;;;;5040198;28;20254;-71
2021/04/13 06:26:21;;;;;;;3.40;2.70;;;10.70;99.90;;;;;;5038325;28;20200;-82
2021/04/13 06:28:48;;;;;;;4.03;2.20;;;11.20;99.90;;;;;;5041297;28;20584;-81
2021/04/13 06:31:15;;;;;;;5.33;2.20;;;11.60;99.90;;;;;;5045914;28;20200;-81
2021/04/13 06:33:41;;;;;;;3.80;2.27;;;11.90;99.90;;;;;;5041112;28;20200;-82
2021/04/13 06:36:08;;;;;;;2.73;1.90;;;12.50;99.90;;;;;;5040711;28;20203;-76
2021/04/13 06:38:38;;;;;;;2.70;1.50;;;13.10;99.90;;;;;;5043836;28;20196;-74
2021/04/13 06:41:40;;;;;;;3.33;1.50;;;13.20;99.90;;;;;;5038260;28;20228;-79
2021/04/13 06:44:34;;;;;;;4.33;1.40;;;13.30;99.90;;;;;;5018889;28;20227;-76
2021/04/13 06:47:10;;;;;;;2.83;1.50;;;13.50;99.90;;;;;;5033316;28;20258;-74
2021/04/13 06:49:53;;;;;;;4.17;1.40;;;13.80;99.90;;;;;;5032575;28;20242;-84
2021/04/13 06:52:29;;;;;;;4.87;1.47;;;14.10;99.90;;;;;;5038807;28;20199;-81
2021/04/13 06:55:08;;;;;;;3.33;1.30;;;14.40;99.90;;;;;;5036702;28;21030;-74
2021/04/13 06:58:08;;;;;;;2.27;1.30;;;14.80;99.90;;;;;;5032057;28;20661;-72
2021/04/13 07:00:55;;;;;;;3.75;1.30;;;15.10;99.90;;;;;;5051301;28;20235;-76
2021/04/13 07:03:30;;;;;;;2.33;1.40;;;15.20;99.90;;;;;;5029269;28;20215;-80
2021/04/13 07:06:03;;;;;;;6.60;1.52;;;15.30;99.90;;;;;;5031777;28;20223;-83
2021/04/13 07:08:36;;;;;;;2.17;1.30;;;15.80;99.90;;;;;;5048951;28;20203;-81
2021/04/13 07:11:08;;;;;;;1.52;0.90;;;16.00;99.90;;;;;;5052115;28;20199;-82
2021/04/13 07:13:50;;;;;;;2.65;0.80;;;16.10;99.90;;;;;;5053130;28;20653;-77
2021/04/13 07:16:22;;;;;;;2.35;1.10;;;16.40;99.90;;;;;;5052470;28;20282;-83
2021/04/13 07:18:58;;;;;;;2.58;1.02;;;16.70;99.90;;;;;;5053041;28;20283;-70
2021/04/13 07:21:33;;;;;;;2.67;1.05;;;16.70;99.90;;;;;;5041970;28;20242;-77
2021/04/13 07:24:09;;;;;;;4.05;1.02;;;17.00;99.90;;;;;;5049249;28;20187;-75
2021/04/13 07:26:40;;;;;;;1.67;0.80;;;16.90;99.90;;;;;;5053009;28;20207;-77
2021/04/13 07:29:12;;;;;;;1.80;0.90;;;16.90;99.90;;;;;;5047546;28;20244;-79
2021/04/13 07:31:48;;;;;;;2.95;0.82;;;17.20;99.90;;;;;;5047521;28;20200;-79
2021/04/13 07:34:15;;;;;;;2.63;0.85;;;17.40;99.90;;;;;;5039981;28;20188;-82
2021/04/13 07:36:46;;;;;;;2.38;0.95;;;17.80;99.90;;;;;;5038329;28;20200;-82
2021/04/13 07:39:13;;;;;;;2.05;1.10;;;17.80;99.90;;;;;;5037705;28;20200;-74
2021/04/13 07:41:46;;;;;;;1.00;1.00;;;18.00;99.90;;;;;;5038788;28;20225;-74
2021/04/13 07:44:22;;;;;;;2.03;1.30;;;17.70;99.90;;;;;;5036219;28;20223;-78
2021/04/13 07:47:01;;;;;;;2.53;1.13;;;17.40;99.90;;;;;;5040356;28;20226;-77
2021/04/13 07:49:33;;;;;;;2.15;1.00;;;17.50;99.90;;;;;;5037835;28;20320;-78
2021/04/13 07:52:17;;;;;;;3.10;1.20;;;17.40;99.90;;;;;;5037574;28;20192;-80
2021/04/13 07:54:54;;;;;;;1.25;1.10;;;17.70;99.90;;;;;;5039472;28;20656;-72
2021/04/13 07:57:38;;;;;;;4.60;1.50;;;17.50;99.90;;;;;;5041368;28;20325;-71
2021/04/13 08:00:15;;;;;;;4.05;1.50;;;17.70;99.90;;;;;;5034459;28;20305;-74
2021/04/13 08:02:46;;;;;;;2.47;1.33;;;17.90;99.90;;;;;;5037173;28;20620;-68
2021/04/13 08:05:13;;;;;;;2.35;1.90;;;18.20;99.90;;;;;;5034969;28;20250;-68
2021/04/13 08:07:43;;;;;;;3.63;1.60;;;18.00;99.90;;;;;;5036361;28;20207;-69
2021/04/13 08:10:18;;;;;;;1.40;1.30;;;18.00;99.90;;;;;;5037655;28;20232;-70
2021/04/13 08:12:54;;;;;;;2.15;1.88;;;17.80;99.90;;;;;;5043097;28;20673;-79
2021/04/13 08:15:41;;;;;;;2.78;2.08;;;17.90;99.90;;;;;;5040915;28;20245;-73
2021/04/13 08:18:14;;;;;;;3.15;2.03;;;18.10;99.90;;;;;;5038664;28;20253;-82
2021/04/13 08:20:43;;;;;;;3.22;1.95;;;18.00;99.90;;;;;;5040331;28;20283;-74
2021/04/13 08:23:13;;;;;;;3.72;2.08;;;17.90;99.90;;;;;;5037733;28;20195;-79
2021/04/13 08:25:43;;;;;;;2.97;2.30;;;18.10;99.90;;;;;;5039502;28;20677;-79
2021/04/13 08:28:28;;;;;;;2.90;2.10;;;18.00;99.90;;;;;;5040077;28;20596;-78
2021/04/13 08:34:11;;;;;;;3.03;2.20;;;18.40;99.90;;;;;;5052543;28;20203;-78
2021/04/13 08:36:46;;;;;;;3.38;2.35;;;17.90;99.90;;;;;;5053548;28;20188;-77
2021/04/13 08:39:24;;;;;;;3.22;2.92;;;18.10;99.90;;;;;;5039602;28;20557;-78
2021/04/13 08:42:07;;;;;;;3.28;2.75;;;18.50;99.90;;;;;;5037295;28;20221;-77
2021/04/13 08:44:47;;;;;;;4.40;3.03;;;19.10;99.90;;;;;;5039471;28;20249;-76
2021/04/13 08:47:22;;;;;;;3.67;3.20;;;18.90;99.90;;;;;;5039203;28;20637;-78
2021/04/13 08:49:54;;;;;;;6.30;3.55;;;19.40;99.90;;;;;;5041967;28;20224;-79
2021/04/13 08:52:42;;;;;;;5.90;3.38;;;19.70;99.90;;;;;;5038953;28;20223;-76
2021/04/13 08:55:14;;;;;;;3.90;3.50;;;20.00;99.90;;;;;;5039133;28;20204;-74
2021/04/13 08:57:44;;;;;;;3.67;3.15;;;20.10;99.90;;;;;;5039695;28;20204;-77
2021/04/13 09:00:44;;;;;;;3.50;3.20;;;20.10;99.90;;;;;;5040318;28;20238;-80
2021/04/13 09:03:13;;;;;;;3.58;3.25;;;19.60;99.90;;;;;;4981969;28;20278;-85
2021/04/13 09:05:42;;;;;;;3.70;3.40;;;19.50;99.90;;;;;;5027586;28;20211;-72
2021/04/13 09:08:29;;;;;;;3.83;3.50;;;19.40;99.90;;;;;;5043127;28;20199;-75
2021/04/13 09:11:16;;;;;;;5.07;4.00;;;19.50;99.90;;;;;;5051657;28;20196;-75
2021/04/13 09:13:51;;;;;;;6.57;3.50;;;19.90;99.90;;;;;;5048401;28;21164;-70
2021/04/13 09:16:22;;;;;;;3.47;3.10;;;20.20;99.90;;;;;;5043201;28;20673;-77
2021/04/13 09:18:55;;;;;;;3.53;3.17;;;20.30;99.90;;;;;;5044404;28;20655;-79
2021/04/13 09:21:43;;;;;;;3.35;3.08;;;19.90;99.90;;;;;;5039957;28;20273;-78
2021/04/13 09:24:15;;;;;;;4.22;3.00;;;19.90;99.90;;;;;;5047121;28;20215;-73
2021/04/13 09:26:59;;;;;;;3.60;3.30;;;19.30;99.90;;;;;;5050187;28;20195;-76
2021/04/13 09:29:36;;;;;;;3.50;3.20;;;17.50;99.90;;;;;;5050477;28;21347;-75
2021/04/13 09:32:05;;;;;;;4.03;3.63;;;17.10;99.90;;;;;;5052197;28;21074;-76
2021/04/13 09:35:06;;;;;;;3.25;2.97;;;17.80;99.90;;;;;;5052696;28;20250;-76
2021/04/13 09:37:45;;;;;;;3.30;3.00;;;18.60;99.90;;;;;;5052294;28;20183;-77
2021/04/13 09:40:25;;;;;;;3.25;2.95;;;19.10;99.90;;;;;;5050861;28;20199;-76
2021/04/13 09:43:16;;;;;;;4.93;3.80;;;19.50;99.90;;;;;;5050919;28;20199;-78
2021/04/13 09:45:52;;;;;;;5.43;4.35;;;19.70;99.90;;;;;;5051251;28;20535;-75
2021/04/13 09:48:52;;;;;;;6.00;3.90;;;20.00;99.90;;;;;;5051056;28;20191;-75
2021/04/13 09:51:24;;;;;;;3.97;3.67;;;20.40;99.90;;;;;;5052446;28;20191;-77
2021/04/13 09:54:11;;;;;;;4.90;4.40;;;20.40;99.90;;;;;;5051497;28;20207;-76
2021/04/13 09:57:12;;;;;;;5.13;4.15;;;20.80;99.90;;;;;;5048328;28;20195;-74
2021/04/13 10:00:06;;;;;;;6.85;4.90;;;21.20;99.90;;;;;;5058593;28;20248;-76
2021/04/13 10:03:06;;;;;;;5.18;4.50;;;20.60;99.90;;;;;;5051386;28;20917;-78
2021/04/13 10:05:37;;;;;;;4.85;4.35;;;20.60;99.90;;;;;;5025933;28;20222;-82
2021/04/13 10:08:09;;;;;;;6.75;4.85;;;20.40;99.90;;;;;;5038931;28;20226;-81
2021/04/13 10:10:41;;;;;;;5.85;4.45;;;20.40;99.90;;;;;;5037076;28;20286;-79
2021/04/13 10:13:47;;;;;;;6.00;4.70;;;19.00;99.90;;;;;;5040654;28;20277;-79
2021/04/13 10:16:27;;;;;;;4.88;4.40;;;18.10;99.90;;;;;;5037328;28;20203;-75
2021/04/13 10:19:35;;;;;;;5.43;4.97;;;18.20;99.90;;;;;;5038299;28;20610;-76
2021/04/13 10:22:43;;;;;;;7.07;5.32;;;18.40;99.90;;;;;;5038333;28;20238;-78
2021/04/13 10:25:44;;;;;;;6.07;5.33;;;18.90;99.90;;;;;;5035870;28;21136;-73
2021/04/13 10:28:44;;;;;;;6.37;5.70;;;17.60;99.90;;;;;;5038704;28;20571;-82
2021/04/13 10:32:05;;;;;;;6.07;5.47;;;15.80;99.90;;;;;;5042648;28;20242;-77
2021/04/13 10:35:00;;;;;;;5.20;4.70;;;14.40;99.90;;;;;;5039416;28;20300;-78
2021/04/13 10:38:06;;;;;;;4.87;4.37;;;14.60;99.90;;;;;;5038415;28;20196;-70
2021/04/13 10:41:02;;;;;;;5.37;4.10;;;14.80;98.10;;;;;;5038362;28;20644;-74
2021/04/13 10:44:07;;;;;;;4.60;3.80;;;14.20;95.90;;;;;;5044665;28;20200;-81
2021/04/13 10:46:49;;;;;;;5.40;3.50;;;13.50;97.50;;;;;;5044040;28;20204;-84
2021/04/13 10:49:34;;;;;;;5.00;3.70;;;13.00;97.00;;;;;;5052083;28;20226;-82
2021/04/13 10:52:35;;;;;;;4.10;3.20;;;13.50;99.00;;;;;;5056513;28;20199;-72
2021/04/13 10:55:33;;;;;;;3.73;3.20;;;15.00;96.80;;;;;;5051198;28;20222;-75
2021/04/13 10:58:35;;;;;;;3.40;3.10;;;16.30;95.60;;;;;;5041125;28;20227;-76
2021/04/13 11:01:29;;;;;;;3.70;3.40;;;17.40;96.40;;;;;;5040613;28;20262;-71
2021/04/13 11:04:34;;;;;;;2.80;2.60;;;18.50;96.90;;;;;;5040826;28;20245;-73
2021/04/13 11:07:35;;;;;;;2.80;2.60;;;19.30;96.20;;;;;;5042887;28;20203;-74
2021/04/13 11:10:28;;;;;;;2.88;2.55;;;19.50;95.80;;;;;;5039733;28;20219;-71
2021/04/13 11:13:28;;;;;;;2.30;2.20;;;19.70;96.40;;;;;;5044733;28;20733;-69
2021/04/13 11:16:13;;;;;;;2.30;2.10;;;19.60;94.40;;;;;;5019005;28;20208;-76
2021/04/13 11:19:15;;;;;;;2.88;2.58;;;19.30;91.10;;;;;;5041487;28;20294;-74
2021/04/13 11:22:27;;;;;;;3.33;2.30;;;19.50;91.10;;;;;;5043877;28;20736;-70
2021/04/13 11:25:42;;;;;;;2.95;2.40;;;19.20;91.90;;;;;;5040977;28;20198;-73
2021/04/13 11:28:45;;;;;;;2.70;2.50;;;19.40;91.10;;;;;;4979866;28;20241;-69
2021/04/13 11:31:57;;;;;;;2.65;2.33;;;19.80;90.60;;;;;;4980968;28;20201;-78
2021/04/13 11:34:47;;;;;;;2.45;2.10;;;19.60;91.20;;;;;;4978210;28;20201;-83
2021/04/13 11:37:26;;;;;;;2.92;2.00;;;18.60;88.40;;;;;;4981898;28;20199;-82
2021/04/13 11:40:11;;;;;;;2.17;1.90;;;18.70;89.80;;;;;;4987266;28;20198;-83
2021/04/13 11:42:39;;;;;;;2.37;2.10;;;18.20;85.90;;;;;;4994918;28;20194;-79
2021/04/13 11:45:23;;;;;;;1.90;1.80;;;17.30;86.30;;;;;;4992341;28;20208;-83
2021/04/13 11:47:56;;;;;;;2.90;2.07;;;16.10;86.10;;;;;;4993275;28;20737;-82
2021/04/13 11:50:29;;;;;;;2.93;2.17;;;14.90;83.70;;;;;;4993197;28;20276;-81
2021/04/13 11:53:01;;;;;;;2.93;2.13;;;13.90;85.90;;;;;;4993378;28;20201;-82
2021/04/13 11:55:41;;;;;;;2.67;1.93;;;13.10;83.00;;;;;;4993193;28;20551;-81
2021/04/13 11:58:13;;;;;;;2.33;1.57;;;12.60;85.00;;;;;;5001907;28;20246;-82
2021/04/13 12:00:40;;;;;;;1.53;1.20;;;12.40;86.90;;;;;;5041932;28;20239;-79
2021/04/13 12:03:28;;;;;;;2.00;1.80;;;12.10;85.80;;;;;;5047085;28;20222;-82
2021/04/13 12:05:57;;;;;;;1.50;1.40;;;12.00;85.90;;;;;;5051372;28;20698;-77
2021/04/13 12:08:49;;;;;;;3.33;1.70;;;12.30;82.80;;;;;;5053834;28;20195;-73
2021/04/13 12:11:47;;;;;;;4.30;1.40;;;14.20;84.30;;;;;;5053430;28;20200;-78
2021/04/13 12:14:28;;;;;;;2.80;1.60;;;16.20;85.40;;;;;;5034407;28;20654;-81
2021/04/13 12:17:19;;;;;;;1.87;1.77;;;17.10;78.50;;;;;;5037445;28;20188;-77
2021/04/13 12:20:38;;;;;;;1.70;1.60;;;17.30;79.80;;;;;;5044644;28;20648;-79
2021/04/13 12:23:44;;;;;;;1.90;1.50;;;18.10;75.80;;;;;;5053267;28;20210;-76
2021/04/13 12:26:11;;;;;;;1.63;1.50;;;18.90;78.20;;;;;;5054347;28;20257;-77
2021/04/13 12:28:49;;;;;;;1.83;1.50;;;19.90;79.10;;;;;;5048151;28;20204;-78
2021/04/13 12:31:24;;;;;;;1.85;1.70;;;20.50;79.80;;;;;;5049662;28;20195;-76
2021/04/13 12:34:06;;;;;;;1.98;1.75;;;20.80;78.30;;;;;;5051437;28;20199;-78
2021/04/13 12:36:57;;;;;;;2.65;1.90;;;20.80;77.90;;;;;;5053766;28;20215;-80
2021/04/13 12:39:57;;;;;;;2.72;2.00;;;20.60;78.40;;;;;;5052256;28;20237;-76
2021/04/13 12:42:45;;;;;;;2.45;1.80;;;20.80;77.60;;;;;;5053824;28;20196;-81
2021/04/13 12:45:30;;;;;;;1.80;1.70;;;21.00;75.20;;;;;;5053472;28;20192;-75
2021/04/13 12:48:00;;;;;;;1.70;1.60;;;19.70;71.50;;;;;;5051358;28;20250;-74
2021/04/13 12:50:31;;;;;;;2.77;2.20;;;18.00;71.50;;;;;;5050685;28;20215;-69
2021/04/13 12:52:59;;;;;;;3.57;2.40;;;16.40;70.60;;;;;;5053229;28;20218;-78
2021/04/13 12:55:27;;;;;;;2.53;1.90;;;15.20;76.30;;;;;;5053340;28;20218;-80
2021/04/13 12:57:56;;;;;;;2.70;1.90;;;14.40;76.10;;;;;;5062561;28;20214;-80
2021/04/13 13:00:24;;;;;;;3.03;2.20;;;13.80;78.10;;;;;;5049352;28;20223;-80
2021/04/13 13:02:51;;;;;;;1.93;1.80;;;13.40;78.40;;;;;;5041448;28;20207;-89
2021/04/13 13:05:20;;;;;;;2.87;2.37;;;13.20;79.40;;;;;;5054138;28;20250;-88
2021/04/13 13:07:53;;;;;;;3.10;2.10;;;12.90;78.70;;;;;;5054081;28;20668;-81
2021/04/13 13:10:27;;;;;;;2.17;1.97;;;12.70;80.20;;;;;;5054507;28;20258;-81
2021/04/13 13:13:00;;;;;;;3.07;2.77;;;12.50;80.70;;;;;;5054231;28;20310;-87
2021/04/13 13:15:32;;;;;;;3.17;2.87;;;12.40;81.40;;;;;;5054377;28;20218;-88
2021/04/13 13:18:14;;;;;;;2.73;2.37;;;12.20;81.40;;;;;;5051699;28;20210;-85
2021/04/13 13:20:41;;;;;;;2.93;2.60;;;11.90;90.40;;;;;;5043372;28;20346;-83
2021/04/13 13:23:13;;;;;;;3.53;2.27;;;11.70;89.40;;;;;;5034547;28;20275;-83
2021/04/13 13:25:42;;;;;;;2.60;2.27;;;11.70;84.00;;;;;;5034734;28;20603;-84
2021/04/13 13:28:12;;;;;;;2.97;2.23;;;11.80;88.30;;;;;;5034273;28;20567;-87
2021/04/13 13:30:39;;;;;;;3.63;2.40;;;11.80;86.10;;;;;;5035698;28;20223;-85
2021/04/13 13:33:06;;;;;;;2.67;2.47;;;12.00;87.80;;;;;;5051701;28;20203;-86